sensor_id;sensor_type;location;lat;lon;timestamp;temperature;humidity
19292;DHT22;9779;51.756;7.450;2022-09-09T00:02:21;17.40;99.90
19292;DHT22;9779;51.756;7.450;2022-09-09T00:07:58;17.30;99.90
19292;DHT22;9779;51.756;7.450;2022-09-09T00:16:29;17.20;99.90
19292;DHT22;9779;51.756;7.450;2022-09-09T00:19:05;17.20;99.90
19292;DHT22;9779;51.756;7.450;2022-09-09T00:21:37;17.20;99.90
19292;DHT22;9779;51.756;7.450;2022-09-09T00:24:22;17.20;99.90
19292;DHT22;9779;51.756;7.450;2022-09-09T00:26:57;17.20;99.90
19292;DHT22;9779;51.756;7.450;2022-09-09T00:29:36;17.10;99.90
19292;DHT22;9779;51.756;7.450;2022-09-09T00:32:16;17.10;99.90
19292;DHT22;9779;51.756;7.450;2022-09-09T00:35:22;17.10;99.90
19292;DHT22;9779;51.756;7.450;2022-09-09T00:37:51;17.10;99.90
19292;DHT22;9779;51.756;7.450;2022-09-09T00:40:36;17.10;99.90
19292;DHT22;9779;51.756;7.450;2022-09-09T00:43:25;17.10;99.90
19292;DHT22;9779;51.756;7.450;2022-09-09T00:56:46;16.90;99.90
19292;DHT22;9779;51.756;7.450;2022-09-09T00:59:43;16.90;99.90
19292;DHT22;9779;51.756;7.450;2022-09-09T01:02:20;16.90;99.90
19292;DHT22;9779;51.756;7.450;2022-09-09T01:04:47;16.80;99.90
19292;DHT22;9779;51.756;7.450;2022-09-09T01:07:17;16.80;99.90
19292;DHT22;9779;51.756;7.450;2022-09-09T01:09:58;16.80;99.90
19292;DHT22;9779;51.756;7.450;2022-09-09T01:12:42;16.70;99.90
19292;DHT22;9779;51.756;7.450;2022-09-09T01:15:14;16.70;99.90
19292;DHT22;9779;51.756;7.450;2022-09-09T01:20:16;16.70;99.90
19292;DHT22;9779;51.756;7.450;2022-09-09T01:23:19;16.60;99.90
19292;DHT22;9779;51.756;7.450;2022-09-09T01:26:15;16.50;99.90
19292;DHT22;9779;51.756;7.450;2022-09-09T01:28:50;16.50;99.90
19292;DHT22;9779;51.756;7.450;2022-09-09T01:31:26;16.50;99.90
19292;DHT22;9779;51.756;7.450;2022-09-09T01:33:53;16.50;99.90
19292;DHT22;9779;51.756;7.450;2022-09-09T01:36:42;16.40;99.90
19292;DHT22;9779;51.756;7.450;2022-09-09T01:39:09;16.50;99.90
19292;DHT22;9779;51.756;7.450;2022-09-09T01:41:35;16.40;99.90
19292;DHT22;9779;51.756;7.450;2022-09-09T01:44:02;16.40;99.90
19292;DHT22;9779;51.756;7.450;2022-09-09T01:46:28;16.40;99.90
19292;DHT22;9779;51.756;7.450;2022-09-09T01:48:56;16.40;99.90
19292;DHT22;9779;51.756;7.450;2022-09-09T01:51:22;16.40;99.90
19292;DHT22;9779;51.756;7.450;2022-09-09T01:53:48;16.30;99.90
19292;DHT22;9779;51.756;7.450;2022-09-09T01:59:18;16.30;99.90
19292;DHT22;9779;51.756;7.450;2022-09-09T02:02:55;16.30;99.90
19292;DHT22;9779;51.756;7.450;2022-09-09T02:05:17;16.30;99.90
19292;DHT22;9779;51.756;7.450;2022-09-09T02:07:48;16.40;99.90
19292;DHT22;9779;51.756;7.450;2022-09-09T02:10:24;16.40;99.90
19292;DHT22;9779;51.756;7.450;2022-09-09T02:12:59;16.30;99.90
19292;DHT22;9779;51.756;7.450;2022-09-09T02:15:38;16.40;99.90
19292;DHT22;9779;51.756;7.450;2022-09-09T02:18:08;16.30;99.90
19292;DHT22;9779;51.756;7.450;2022-09-09T02:20:37;16.30;99.90
19292;DHT22;9779;51.756;7.450;2022-09-09T02:23:05;16.30;99.90
19292;DHT22;9779;51.756;7.450;2022-09-09T02:25:34;16.30;99.90
19292;DHT22;9779;51.756;7.450;2022-09-09T02:28:05;16.20;99.90
19292;DHT22;9779;51.756;7.450;2022-09-09T02:30:32;16.20;99.90
19292;DHT22;9779;51.756;7.450;2022-09-09T02:33:01;16.20;99.90
19292;DHT22;9779;51.756;7.450;2022-09-09T02:35:30;16.20;99.90
19292;DHT22;9779;51.756;7.450;2022-09-09T02:38:01;16.20;99.90
19292;DHT22;9779;51.756;7.450;2022-09-09T02:40:28;16.20;99.90
19292;DHT22;9779;51.756;7.450;2022-09-09T02:42:55;16.20;99.90
19292;DHT22;9779;51.756;7.450;2022-09-09T02:45:24;16.10;99.90
19292;DHT22;9779;51.756;7.450;2022-09-09T02:48:12;16.10;99.90
19292;DHT22;9779;51.756;7.450;2022-09-09T02:53:18;16.00;99.90
19292;DHT22;9779;51.756;7.450;2022-09-09T02:55:53;16.00;99.90
19292;DHT22;9779;51.756;7.450;2022-09-09T02:58:20;16.00;99.90
19292;DHT22;9779;51.756;7.450;2022-09-09T03:00:48;16.00;99.90
19292;DHT22;9779;51.756;7.450;2022-09-09T03:03:15;16.00;99.90
19292;DHT22;9779;51.756;7.450;2022-09-09T03:05:45;16.00;99.90
19292;DHT22;9779;51.756;7.450;2022-09-09T03:08:11;16.00;99.90
19292;DHT22;9779;51.756;7.450;2022-09-09T03:10:38;15.90;99.90
19292;DHT22;9779;51.756;7.450;2022-09-09T03:13:04;16.00;99.90
19292;DHT22;9779;51.756;7.450;2022-09-09T03:15:31;15.90;99.90
19292;DHT22;9779;51.756;7.450;2022-09-09T03:17:57;15.90;99.90
19292;DHT22;9779;51.756;7.450;2022-09-09T03:20:24;16.00;99.90
19292;DHT22;9779;51.756;7.450;2022-09-09T03:22:51;16.00;99.90
19292;DHT22;9779;51.756;7.450;2022-09-09T03:25:17;15.90;99.90
19292;DHT22;9779;51.756;7.450;2022-09-09T03:27:43;15.90;99.90
19292;DHT22;9779;51.756;7.450;2022-09-09T03:30:09;15.90;99.90
19292;DHT22;9779;51.756;7.450;2022-09-09T03:32:35;15.90;99.90
19292;DHT22;9779;51.756;7.450;2022-09-09T03:35:00;16.00;99.90
19292;DHT22;9779;51.756;7.450;2022-09-09T03:37:26;15.90;99.90
19292;DHT22;9779;51.756;7.450;2022-09-09T03:39:51;16.00;99.90
19292;DHT22;9779;51.756;7.450;2022-09-09T03:42:19;16.00;99.90
19292;DHT22;9779;51.756;7.450;2022-09-09T03:44:46;16.00;99.90
19292;DHT22;9779;51.756;7.450;2022-09-09T03:47:24;15.90;99.90
19292;DHT22;9779;51.756;7.450;2022-09-09T03:49:50;15.90;99.90
19292;DHT22;9779;51.756;7.450;2022-09-09T03:52:16;15.90;99.90
19292;DHT22;9779;51.756;7.450;2022-09-09T03:54:42;15.90;99.90
19292;DHT22;9779;51.756;7.450;2022-09-09T03:57:08;15.90;99.90
19292;DHT22;9779;51.756;7.450;2022-09-09T03:59:34;15.90;99.90
19292;DHT22;9779;51.756;7.450;2022-09-09T04:02:00;15.90;99.90
19292;DHT22;9779;51.756;7.450;2022-09-09T04:04:26;15.90;99.90
19292;DHT22;9779;51.756;7.450;2022-09-09T04:06:52;15.90;99.90
19292;DHT22;9779;51.756;7.450;2022-09-09T04:09:18;15.80;99.90
19292;DHT22;9779;51.756;7.450;2022-09-09T04:11:44;15.80;99.90
19292;DHT22;9779;51.756;7.450;2022-09-09T04:14:10;15.80;99.90
19292;DHT22;9779;51.756;7.450;2022-09-09T04:16:35;15.80;99.90
19292;DHT22;9779;51.756;7.450;2022-09-09T04:19:04;15.80;99.90
19292;DHT22;9779;51.756;7.450;2022-09-09T04:21:30;15.80;99.90
19292;DHT22;9779;51.756;7.450;2022-09-09T04:23:56;15.80;99.90
19292;DHT22;9779;51.756;7.450;2022-09-09T04:26:22;15.80;99.90
19292;DHT22;9779;51.756;7.450;2022-09-09T04:28:48;15.80;99.90
19292;DHT22;9779;51.756;7.450;2022-09-09T04:31:19;15.80;99.90
19292;DHT22;9779;51.756;7.450;2022-09-09T04:33:47;15.80;99.90
19292;DHT22;9779;51.756;7.450;2022-09-09T04:36:13;15.80;99.90
19292;DHT22;9779;51.756;7.450;2022-09-09T04:38:38;15.80;99.90
19292;DHT22;9779;51.756;7.450;2022-09-09T04:41:05;15.80;99.90
19292;DHT22;9779;51.756;7.450;2022-09-09T04:43:31;15.80;99.90
19292;DHT22;9779;51.756;7.450;2022-09-09T04:45:57;15.80;99.90
19292;DHT22;9779;51.756;7.450;2022-09-09T04:48:23;15.80;99.90
19292;DHT22;9779;51.756;7.450;2022-09-09T04:50:58;15.80;99.90
19292;DHT22;9779;51.756;7.450;2022-09-09T04:53:24;15.80;99.90
19292;DHT22;9779;51.756;7.450;2022-09-09T04:55:51;15.70;99.90
19292;DHT22;9779;51.756;7.450;2022-09-09T04:58:16;15.80;99.90
19292;DHT22;9779;51.756;7.450;2022-09-09T05:00:42;15.80;99.90
19292;DHT22;9779;51.756;7.450;2022-09-09T05:03:08;15.80;99.90
19292;DHT22;9779;51.756;7.450;2022-09-09T05:05:35;15.80;99.90
19292;DHT22;9779;51.756;7.450;2022-09-09T05:08:04;15.80;99.90
19292;DHT22;9779;51.756;7.450;2022-09-09T05:10:31;15.80;99.90
19292;DHT22;9779;51.756;7.450;2022-09-09T05:12:57;15.80;99.90
19292;DHT22;9779;51.756;7.450;2022-09-09T05:15:23;15.80;99.90
19292;DHT22;9779;51.756;7.450;2022-09-09T05:17:48;15.80;99.90
19292;DHT22;9779;51.756;7.450;2022-09-09T05:20:14;15.80;99.90
19292;DHT22;9779;51.756;7.450;2022-09-09T05:22:39;15.90;99.90
19292;DHT22;9779;51.756;7.450;2022-09-09T05:25:06;15.80;99.90
19292;DHT22;9779;51.756;7.450;2022-09-09T05:27:34;15.80;99.90
19292;DHT22;9779;51.756;7.450;2022-09-09T05:29:59;15.90;99.90
19292;DHT22;9779;51.756;7.450;2022-09-09T05:32:25;15.90;99.90
19292;DHT22;9779;51.756;7.450;2022-09-09T05:34:51;15.80;99.90
19292;DHT22;9779;51.756;7.450;2022-09-09T05:37:17;15.90;99.90
19292;DHT22;9779;51.756;7.450;2022-09-09T05:39:43;15.90;99.90
19292;DHT22;9779;51.756;7.450;2022-09-09T05:42:09;15.90;99.90
19292;DHT22;9779;51.756;7.450;2022-09-09T05:44:35;15.90;99.90
19292;DHT22;9779;51.756;7.450;2022-09-09T05:47:00;15.90;99.90
19292;DHT22;9779;51.756;7.450;2022-09-09T05:49:26;15.90;99.90
19292;DHT22;9779;51.756;7.450;2022-09-09T05:51:52;15.90;99.90
19292;DHT22;9779;51.756;7.450;2022-09-09T05:54:18;16.00;99.90
19292;DHT22;9779;51.756;7.450;2022-09-09T05:56:44;16.00;99.90
19292;DHT22;9779;51.756;7.450;2022-09-09T05:59:09;16.00;99.90
19292;DHT22;9779;51.756;7.450;2022-09-09T06:01:36;16.00;99.90
19292;DHT22;9779;51.756;7.450;2022-09-09T06:04:05;16.10;99.90
19292;DHT22;9779;51.756;7.450;2022-09-09T06:06:36;16.00;99.90
19292;DHT22;9779;51.756;7.450;2022-09-09T06:09:03;16.10;99.90
19292;DHT22;9779;51.756;7.450;2022-09-09T06:11:32;16.10;99.90
19292;DHT22;9779;51.756;7.450;2022-09-09T06:13:59;16.10;99.90
19292;DHT22;9779;51.756;7.450;2022-09-09T06:16:27;16.20;99.90
19292;DHT22;9779;51.756;7.450;2022-09-09T06:18:53;16.20;99.90
19292;DHT22;9779;51.756;7.450;2022-09-09T06:21:22;16.20;99.90
19292;DHT22;9779;51.756;7.450;2022-09-09T06:23:48;16.20;99.90
19292;DHT22;9779;51.756;7.450;2022-09-09T06:26:20;16.30;99.90
19292;DHT22;9779;51.756;7.450;2022-09-09T06:28:47;16.30;99.90
19292;DHT22;9779;51.756;7.450;2022-09-09T06:31:14;16.30;99.90
19292;DHT22;9779;51.756;7.450;2022-09-09T06:33:42;16.30;99.90
19292;DHT22;9779;51.756;7.450;2022-09-09T06:36:29;16.30;99.90
19292;DHT22;9779;51.756;7.450;2022-09-09T06:38:55;16.40;99.90
19292;DHT22;9779;51.756;7.450;2022-09-09T06:41:24;16.40;99.90
19292;DHT22;9779;51.756;7.450;2022-09-09T06:43:51;16.40;99.90
19292;DHT22;9779;51.756;7.450;2022-09-09T06:46:28;16.50;99.90
19292;DHT22;9779;51.756;7.450;2022-09-09T06:48:54;16.50;99.90
19292;DHT22;9779;51.756;7.450;2022-09-09T06:51:35;16.50;99.90
19292;DHT22;9779;51.756;7.450;2022-09-09T06:54:03;16.50;99.90
19292;DHT22;9779;51.756;7.450;2022-09-09T06:56:34;16.50;99.90
19292;DHT22;9779;51.756;7.450;2022-09-09T06:59:02;16.50;99.90
19292;DHT22;9779;51.756;7.450;2022-09-09T07:01:31;16.50;99.90
19292;DHT22;9779;51.756;7.450;2022-09-09T07:03:58;16.50;99.90
19292;DHT22;9779;51.756;7.450;2022-09-09T07:06:44;16.50;99.90
19292;DHT22;9779;51.756;7.450;2022-09-09T07:09:13;16.50;99.90
19292;DHT22;9779;51.756;7.450;2022-09-09T07:11:42;16.50;99.90
19292;DHT22;9779;51.756;7.450;2022-09-09T07:14:07;16.50;99.90
19292;DHT22;9779;51.756;7.450;2022-09-09T07:16:34;16.60;99.90
19292;DHT22;9779;51.756;7.450;2022-09-09T07:19:03;16.60;99.90
19292;DHT22;9779;51.756;7.450;2022-09-09T07:21:30;16.70;99.90
19292;DHT22;9779;51.756;7.450;2022-09-09T07:23:56;16.70;99.90
19292;DHT22;9779;51.756;7.450;2022-09-09T07:26:25;16.80;99.90
19292;DHT22;9779;51.756;7.450;2022-09-09T07:28:51;16.90;99.90
19292;DHT22;9779;51.756;7.450;2022-09-09T07:31:19;16.90;99.90
19292;DHT22;9779;51.756;7.450;2022-09-09T07:33:46;17.00;99.90
19292;DHT22;9779;51.756;7.450;2022-09-09T07:36:15;17.00;99.90
19292;DHT22;9779;51.756;7.450;2022-09-09T07:38:46;17.10;99.90
19292;DHT22;9779;51.756;7.450;2022-09-09T07:41:23;17.10;99.90
19292;DHT22;9779;51.756;7.450;2022-09-09T07:43:51;17.20;99.90
19292;DHT22;9779;51.756;7.450;2022-09-09T07:46:18;17.20;99.90
19292;DHT22;9779;51.756;7.450;2022-09-09T07:48:46;17.20;99.90
19292;DHT22;9779;51.756;7.450;2022-09-09T07:51:17;17.20;99.90
19292;DHT22;9779;51.756;7.450;2022-09-09T07:53:44;17.20;99.90
19292;DHT22;9779;51.756;7.450;2022-09-09T07:56:14;17.30;99.90
19292;DHT22;9779;51.756;7.450;2022-09-09T07:58:42;17.40;99.90
19292;DHT22;9779;51.756;7.450;2022-09-09T08:01:18;17.40;99.90
19292;DHT22;9779;51.756;7.450;2022-09-09T08:03:45;17.50;99.90
19292;DHT22;9779;51.756;7.450;2022-09-09T08:06:11;17.60;99.90
19292;DHT22;9779;51.756;7.450;2022-09-09T08:08:38;17.70;99.90
19292;DHT22;9779;51.756;7.450;2022-09-09T08:11:09;17.70;99.90
19292;DHT22;9779;51.756;7.450;2022-09-09T08:13:36;17.70;99.90
19292;DHT22;9779;51.756;7.450;2022-09-09T08:16:10;17.70;99.90
19292;DHT22;9779;51.756;7.450;2022-09-09T08:18:37;17.80;99.90
19292;DHT22;9779;51.756;7.450;2022-09-09T08:21:12;18.00;99.90
19292;DHT22;9779;51.756;7.450;2022-09-09T08:23:42;18.10;99.90
19292;DHT22;9779;51.756;7.450;2022-09-09T08:26:15;18.40;99.90
19292;DHT22;9779;51.756;7.450;2022-09-09T08:28:42;18.50;99.90
19292;DHT22;9779;51.756;7.450;2022-09-09T08:31:10;18.60;99.90
19292;DHT22;9779;51.756;7.450;2022-09-09T08:33:36;18.50;99.90
19292;DHT22;9779;51.756;7.450;2022-09-09T08:36:04;18.40;99.90
19292;DHT22;9779;51.756;7.450;2022-09-09T08:38:30;18.40;99.90
19292;DHT22;9779;51.756;7.450;2022-09-09T08:41:03;18.30;99.90
19292;DHT22;9779;51.756;7.450;2022-09-09T08:43:33;18.30;99.90
19292;DHT22;9779;51.756;7.450;2022-09-09T08:50:56;18.30;99.90
19292;DHT22;9779;51.756;7.450;2022-09-09T08:53:29;18.40;99.90
19292;DHT22;9779;51.756;7.450;2022-09-09T08:55:59;18.40;99.90
19292;DHT22;9779;51.756;7.450;2022-09-09T08:58:32;18.30;99.90
19292;DHT22;9779;51.756;7.450;2022-09-09T09:06:35;18.50;99.90
19292;DHT22;9779;51.756;7.450;2022-09-09T09:11:39;18.90;99.90
19292;DHT22;9779;51.756;7.450;2022-09-09T09:14:25;19.00;99.90
19292;DHT22;9779;51.756;7.450;2022-09-09T09:19:17;19.30;99.90
19292;DHT22;9779;51.756;7.450;2022-09-09T09:21:44;19.40;99.90
19292;DHT22;9779;51.756;7.450;2022-09-09T09:24:23;19.50;99.90
19292;DHT22;9779;51.756;7.450;2022-09-09T09:26:50;19.50;99.90
19292;DHT22;9779;51.756;7.450;2022-09-09T09:29:18;19.40;99.90
19292;DHT22;9779;51.756;7.450;2022-09-09T09:31:55;19.40;99.90
19292;DHT22;9779;51.756;7.450;2022-09-09T09:34:23;19.40;99.90
19292;DHT22;9779;51.756;7.450;2022-09-09T09:37:00;19.40;99.90
19292;DHT22;9779;51.756;7.450;2022-09-09T09:39:31;19.40;99.90
19292;DHT22;9779;51.756;7.450;2022-09-09T09:42:10;19.40;99.90
19292;DHT22;9779;51.756;7.450;2022-09-09T09:44:39;19.40;99.90
19292;DHT22;9779;51.756;7.450;2022-09-09T09:47:14;19.50;99.90
19292;DHT22;9779;51.756;7.450;2022-09-09T09:49:54;19.50;99.90
19292;DHT22;9779;51.756;7.450;2022-09-09T09:52:23;19.50;99.90
19292;DHT22;9779;51.756;7.450;2022-09-09T09:54:50;19.50;99.90
19292;DHT22;9779;51.756;7.450;2022-09-09T09:57:17;19.50;99.90
19292;DHT22;9779;51.756;7.450;2022-09-09T09:59:43;19.50;99.90
19292;DHT22;9779;51.756;7.450;2022-09-09T10:02:25;19.50;99.90
19292;DHT22;9779;51.756;7.450;2022-09-09T10:05:19;19.50;99.90
19292;DHT22;9779;51.756;7.450;2022-09-09T10:07:46;19.30;99.90
19292;DHT22;9779;51.756;7.450;2022-09-09T10:10:26;19.30;99.90
19292;DHT22;9779;51.756;7.450;2022-09-09T10:21:27;19.80;99.90
19292;DHT22;9779;51.756;7.450;2022-09-09T10:29:41;20.10;99.90
19292;DHT22;9779;51.756;7.450;2022-09-09T10:34:58;20.40;99.90
19292;DHT22;9779;51.756;7.450;2022-09-09T10:38:05;20.60;99.90
19292;DHT22;9779;51.756;7.450;2022-09-09T10:57:00;20.80;99.90
19292;DHT22;9779;51.756;7.450;2022-09-09T10:59:30;20.70;99.90
19292;DHT22;9779;51.756;7.450;2022-09-09T11:02:05;20.80;99.90
19292;DHT22;9779;51.756;7.450;2022-09-09T11:04:48;20.90;99.90
19292;DHT22;9779;51.756;7.450;2022-09-09T11:09:57;21.20;99.90
19292;DHT22;9779;51.756;7.450;2022-09-09T11:12:24;21.40;99.90
19292;DHT22;9779;51.756;7.450;2022-09-09T11:17:26;21.20;99.90
19292;DHT22;9779;51.756;7.450;2022-09-09T11:19:55;21.20;99.90
19292;DHT22;9779;51.756;7.450;2022-09-09T11:25:25;21.80;99.90
19292;DHT22;9779;51.756;7.450;2022-09-09T11:30:50;22.20;99.90
19292;DHT22;9779;51.756;7.450;2022-09-09T11:33:30;22.40;99.90
19292;DHT22;9779;51.756;7.450;2022-09-09T11:44:38;22.40;99.90
19292;DHT22;9779;51.756;7.450;2022-09-09T11:47:28;22.30;99.90
19292;DHT22;9779;51.756;7.450;2022-09-09T11:52:45;22.50;99.90
19292;DHT22;9779;51.756;7.450;2022-09-09T11:55:29;22.60;99.90
19292;DHT22;9779;51.756;7.450;2022-09-09T11:57:59;22.50;99.90
19292;DHT22;9779;51.756;7.450;2022-09-09T12:00:40;22.30;99.90
19292;DHT22;9779;51.756;7.450;2022-09-09T12:03:38;22.60;99.90
19292;DHT22;9779;51.756;7.450;2022-09-09T12:06:41;23.10;99.90
19292;DHT22;9779;51.756;7.450;2022-09-09T12:11:52;23.30;99.90
19292;DHT22;9779;51.756;7.450;2022-09-09T12:14:54;23.40;99.90
19292;DHT22;9779;51.756;7.450;2022-09-09T12:17:23;23.50;99.90
19292;DHT22;9779;51.756;7.450;2022-09-09T12:25:30;23.10;99.90
19292;DHT22;9779;51.756;7.450;2022-09-09T12:28:14;23.20;99.90
19292;DHT22;9779;51.756;7.450;2022-09-09T12:30:51;23.40;99.90
19292;DHT22;9779;51.756;7.450;2022-09-09T12:33:21;23.30;99.90
19292;DHT22;9779;51.756;7.450;2022-09-09T12:35:57;23.10;99.90
19292;DHT22;9779;51.756;7.450;2022-09-09T12:38:37;23.10;99.90
19292;DHT22;9779;51.756;7.450;2022-09-09T12:41:04;23.10;99.90
19292;DHT22;9779;51.756;7.450;2022-09-09T12:43:30;23.10;99.90
19292;DHT22;9779;51.756;7.450;2022-09-09T12:48:36;22.80;99.90
19292;DHT22;9779;51.756;7.450;2022-09-09T12:51:05;22.60;99.90
19292;DHT22;9779;51.756;7.450;2022-09-09T12:53:35;22.20;99.90
19292;DHT22;9779;51.756;7.450;2022-09-09T12:56:06;22.20;99.90
19292;DHT22;9779;51.756;7.450;2022-09-09T12:58:36;22.20;99.90
19292;DHT22;9779;51.756;7.450;2022-09-09T13:01:04;22.00;99.90
19292;DHT22;9779;51.756;7.450;2022-09-09T13:03:31;21.80;99.90
19292;DHT22;9779;51.756;7.450;2022-09-09T13:06:18;21.70;99.90
19292;DHT22;9779;51.756;7.450;2022-09-09T13:08:44;21.80;99.90
19292;DHT22;9779;51.756;7.450;2022-09-09T13:11:14;22.40;99.90
19292;DHT22;9779;51.756;7.450;2022-09-09T13:13:42;22.80;99.90
19292;DHT22;9779;51.756;7.450;2022-09-09T13:16:27;23.20;99.90
19292;DHT22;9779;51.756;7.450;2022-09-09T13:18:55;23.50;99.90
19292;DHT22;9779;51.756;7.450;2022-09-09T13:21:34;23.70;99.90
19292;DHT22;9779;51.756;7.450;2022-09-09T13:24:00;23.70;99.90
19292;DHT22;9779;51.756;7.450;2022-09-09T13:26:29;23.50;99.90
19292;DHT22;9779;51.756;7.450;2022-09-09T13:29:14;23.30;99.90
19292;DHT22;9779;51.756;7.450;2022-09-09T13:31:43;23.10;99.90
19292;DHT22;9779;51.756;7.450;2022-09-09T13:34:34;23.00;99.90
19292;DHT22;9779;51.756;7.450;2022-09-09T13:37:05;22.80;99.90
19292;DHT22;9779;51.756;7.450;2022-09-09T13:39:35;22.80;99.90
19292;DHT22;9779;51.756;7.450;2022-09-09T13:42:02;22.80;99.90
19292;DHT22;9779;51.756;7.450;2022-09-09T13:44:35;22.80;99.90
19292;DHT22;9779;51.756;7.450;2022-09-09T13:49:40;23.10;99.90
19292;DHT22;9779;51.756;7.450;2022-09-09T13:52:14;23.00;99.90
19292;DHT22;9779;51.756;7.450;2022-09-09T13:54:41;22.80;99.90
19292;DHT22;9779;51.756;7.450;2022-09-09T13:57:24;22.70;99.90
19292;DHT22;9779;51.756;7.450;2022-09-09T13:59:51;22.40;99.90
19292;DHT22;9779;51.756;7.450;2022-09-09T14:02:17;21.70;99.90
19292;DHT22;9779;51.756;7.450;2022-09-09T14:04:44;21.30;99.90
19292;DHT22;9779;51.756;7.450;2022-09-09T14:07:14;21.10;99.90
19292;DHT22;9779;51.756;7.450;2022-09-09T14:09:40;20.30;99.90
19292;DHT22;9779;51.756;7.450;2022-09-09T14:12:12;20.30;99.90
19292;DHT22;9779;51.756;7.450;2022-09-09T14:14:40;20.30;99.90
19292;DHT22;9779;51.756;7.450;2022-09-09T14:17:08;20.10;99.90
19292;DHT22;9779;51.756;7.450;2022-09-09T14:19:33;19.80;99.90
19292;DHT22;9779;51.756;7.450;2022-09-09T14:21:59;19.80;99.90
19292;DHT22;9779;51.756;7.450;2022-09-09T14:24:25;19.60;99.90
19292;DHT22;9779;51.756;7.450;2022-09-09T14:26:51;19.70;99.90
19292;DHT22;9779;51.756;7.450;2022-09-09T14:29:16;19.50;99.90
19292;DHT22;9779;51.756;7.450;2022-09-09T14:31:42;19.50;99.90
19292;DHT22;9779;51.756;7.450;2022-09-09T14:34:07;19.50;99.90
19292;DHT22;9779;51.756;7.450;2022-09-09T14:36:36;19.50;99.90
19292;DHT22;9779;51.756;7.450;2022-09-09T14:39:02;19.60;99.90
19292;DHT22;9779;51.756;7.450;2022-09-09T14:41:29;19.70;99.90
19292;DHT22;9779;51.756;7.450;2022-09-09T14:43:55;19.80;99.90
19292;DHT22;9779;51.756;7.450;2022-09-09T14:46:21;19.80;99.90
19292;DHT22;9779;51.756;7.450;2022-09-09T14:48:47;19.90;99.90
19292;DHT22;9779;51.756;7.450;2022-09-09T14:51:16;20.00;99.90
19292;DHT22;9779;51.756;7.450;2022-09-09T14:53:43;20.10;99.90
19292;DHT22;9779;51.756;7.450;2022-09-09T14:56:15;20.40;99.90
19292;DHT22;9779;51.756;7.450;2022-09-09T14:58:41;20.30;99.90
19292;DHT22;9779;51.756;7.450;2022-09-09T15:01:09;20.30;99.90
19292;DHT22;9779;51.756;7.450;2022-09-09T15:03:38;20.20;99.90
19292;DHT22;9779;51.756;7.450;2022-09-09T15:06:12;20.30;99.90
19292;DHT22;9779;51.756;7.450;2022-09-09T15:08:40;20.60;99.90
19292;DHT22;9779;51.756;7.450;2022-09-09T15:11:07;20.80;99.90
19292;DHT22;9779;51.756;7.450;2022-09-09T15:13:35;20.80;99.90
19292;DHT22;9779;51.756;7.450;2022-09-09T15:16:07;20.70;99.90
19292;DHT22;9779;51.756;7.450;2022-09-09T15:18:33;20.70;99.90
19292;DHT22;9779;51.756;7.450;2022-09-09T15:21:05;20.50;99.90
19292;DHT22;9779;51.756;7.450;2022-09-09T15:23:32;20.50;99.90
19292;DHT22;9779;51.756;7.450;2022-09-09T15:25:58;20.40;99.90
19292;DHT22;9779;51.756;7.450;2022-09-09T15:28:23;20.40;99.90
19292;DHT22;9779;51.756;7.450;2022-09-09T15:30:53;20.40;99.90
19292;DHT22;9779;51.756;7.450;2022-09-09T15:33:20;20.30;99.90
19292;DHT22;9779;51.756;7.450;2022-09-09T15:35:46;20.20;99.90
19292;DHT22;9779;51.756;7.450;2022-09-09T15:38:12;20.10;99.90
19292;DHT22;9779;51.756;7.450;2022-09-09T15:40:42;20.10;99.90
19292;DHT22;9779;51.756;7.450;2022-09-09T15:43:08;20.00;99.90
19292;DHT22;9779;51.756;7.450;2022-09-09T15:45:35;19.90;99.90
19292;DHT22;9779;51.756;7.450;2022-09-09T15:48:01;19.90;99.90
19292;DHT22;9779;51.756;7.450;2022-09-09T15:50:27;19.70;99.90
19292;DHT22;9779;51.756;7.450;2022-09-09T15:52:52;19.70;99.90
19292;DHT22;9779;51.756;7.450;2022-09-09T15:55:19;19.60;99.90
19292;DHT22;9779;51.756;7.450;2022-09-09T15:57:45;19.60;99.90
19292;DHT22;9779;51.756;7.450;2022-09-09T16:00:12;19.60;99.90
19292;DHT22;9779;51.756;7.450;2022-09-09T16:02:39;19.30;99.90
19292;DHT22;9779;51.756;7.450;2022-09-09T16:05:05;19.30;99.90
19292;DHT22;9779;51.756;7.450;2022-09-09T16:07:30;19.20;99.90
19292;DHT22;9779;51.756;7.450;2022-09-09T16:09:56;19.10;99.90
19292;DHT22;9779;51.756;7.450;2022-09-09T16:12:21;19.10;99.90
19292;DHT22;9779;51.756;7.450;2022-09-09T16:14:47;19.10;99.90
19292;DHT22;9779;51.756;7.450;2022-09-09T16:17:12;19.00;99.90
19292;DHT22;9779;51.756;7.450;2022-09-09T16:19:39;18.90;99.90
19292;DHT22;9779;51.756;7.450;2022-09-09T16:22:05;18.90;99.90
19292;DHT22;9779;51.756;7.450;2022-09-09T16:24:32;18.90;99.90
19292;DHT22;9779;51.756;7.450;2022-09-09T16:26:57;18.80;99.90
19292;DHT22;9779;51.756;7.450;2022-09-09T16:29:23;18.80;99.90
19292;DHT22;9779;51.756;7.450;2022-09-09T16:31:51;18.70;99.90
19292;DHT22;9779;51.756;7.450;2022-09-09T16:34:17;18.80;99.90
19292;DHT22;9779;51.756;7.450;2022-09-09T16:36:43;18.80;99.90
19292;DHT22;9779;51.756;7.450;2022-09-09T16:39:11;18.70;99.90
19292;DHT22;9779;51.756;7.450;2022-09-09T16:41:38;18.80;99.90
19292;DHT22;9779;51.756;7.450;2022-09-09T16:44:09;18.80;99.90
19292;DHT22;9779;51.756;7.450;2022-09-09T16:46:36;18.80;99.90
19292;DHT22;9779;51.756;7.450;2022-09-09T16:49:05;18.80;99.90
19292;DHT22;9779;51.756;7.450;2022-09-09T16:51:34;18.80;99.90
19292;DHT22;9779;51.756;7.450;2022-09-09T16:54:02;18.90;99.90
19292;DHT22;9779;51.756;7.450;2022-09-09T16:56:30;18.90;99.90
19292;DHT22;9779;51.756;7.450;2022-09-09T16:58:59;18.90;99.90
19292;DHT22;9779;51.756;7.450;2022-09-09T17:01:27;18.90;99.90
19292;DHT22;9779;51.756;7.450;2022-09-09T17:03:56;18.90;99.90
19292;DHT22;9779;51.756;7.450;2022-09-09T17:06:22;18.90;99.90
19292;DHT22;9779;51.756;7.450;2022-09-09T17:08:54;18.90;99.90
19292;DHT22;9779;51.756;7.450;2022-09-09T17:11:19;18.90;99.90
19292;DHT22;9779;51.756;7.450;2022-09-09T17:13:46;18.90;99.90
19292;DHT22;9779;51.756;7.450;2022-09-09T17:16:13;18.80;99.90
19292;DHT22;9779;51.756;7.450;2022-09-09T17:18:39;18.70;99.90
19292;DHT22;9779;51.756;7.450;2022-09-09T17:21:08;18.60;99.90
19292;DHT22;9779;51.756;7.450;2022-09-09T17:23:35;18.60;99.90
19292;DHT22;9779;51.756;7.450;2022-09-09T17:26:07;18.50;99.90
19292;DHT22;9779;51.756;7.450;2022-09-09T17:28:38;18.50;99.90
19292;DHT22;9779;51.756;7.450;2022-09-09T17:31:05;18.50;99.90
19292;DHT22;9779;51.756;7.450;2022-09-09T17:33:33;18.30;99.90
19292;DHT22;9779;51.756;7.450;2022-09-09T17:36:02;18.30;99.90
19292;DHT22;9779;51.756;7.450;2022-09-09T17:38:28;18.30;99.90
19292;DHT22;9779;51.756;7.450;2022-09-09T17:41:06;18.30;99.90
19292;DHT22;9779;51.756;7.450;2022-09-09T17:43:32;18.20;99.90
19292;DHT22;9779;51.756;7.450;2022-09-09T17:46:21;18.30;99.90
19292;DHT22;9779;51.756;7.450;2022-09-09T17:48:48;18.20;99.90
19292;DHT22;9779;51.756;7.450;2022-09-09T17:51:18;18.20;99.90
19292;DHT22;9779;51.756;7.450;2022-09-09T17:53:51;18.20;99.90
19292;DHT22;9779;51.756;7.450;2022-09-09T17:56:18;18.10;99.90
19292;DHT22;9779;51.756;7.450;2022-09-09T17:58:48;18.20;99.90